Time;durP1;ratioP1;P1;durP2;ratioP2;P2;SDS_P1;SDS_P2;PMS_P1;PMS_P2;Temp;Humidity;BMP_temperature;BMP_pressure;BME280_temperature;BME280_humidity;BME280_pressure;Samples;Min_cycle;Max_cycle;Signal;HPM_P1;HPM_P2
2023/10/23 00:00:24;;;;;;;16.40;7.30;;;;;;;9.81;100.00;100255.31;109420;1251;72703;-57
2023/10/23 00:02:52;;;;;;;15.50;8.00;;;;;;;9.83;100.00;100261.76;109438;1251;60450;-55
2023/10/23 00:05:19;;;;;;;13.40;7.70;;;;;;;9.87;100.00;100263.98;109414;1251;58935;-61
2023/10/23 00:07:47;;;;;;;17.10;9.50;;;;;;;9.89;100.00;100251.95;109473;1251;74739;-59
2023/10/23 00:10:15;;;;;;;17.00;7.90;;;;;;;9.90;100.00;100251.77;109486;1251;66962;-56
2023/10/23 00:12:42;;;;;;;15.30;7.40;;;;;;;9.91;100.00;100240.15;109307;1253;72793;-56
2023/10/23 00:15:10;;;;;;;14.50;7.80;;;;;;;9.91;100.00;100228.17;109268;1252;61677;-56
2023/10/23 00:17:38;;;;;;;15.70;8.20;;;;;;;9.92;100.00;100225.50;109240;1253;59156;-55
2023/10/23 00:20:06;;;;;;;12.00;7.20;;;;;;;9.90;100.00;100231.98;109351;1253;74722;-57
2023/10/23 00:22:33;;;;;;;14.20;7.70;;;;;;;9.87;100.00;100238.82;109355;1252;68612;-54
2023/10/23 00:25:01;;;;;;;12.40;6.90;;;;;;;9.82;100.00;100237.81;109130;1253;219325;-57
2023/10/23 00:27:29;;;;;;;13.30;7.00;;;;;;;9.78;100.00;100246.66;109196;1254;62297;-58
2023/10/23 00:29:56;;;;;;;17.00;7.80;;;;;;;9.74;100.00;100243.80;109367;1252;60139;-55
2023/10/23 00:32:24;;;;;;;16.10;7.40;;;;;;;9.71;100.00;100239.77;109305;1253;73935;-54
2023/10/23 00:34:52;;;;;;;15.30;8.70;;;;;;;9.68;100.00;100229.77;109297;1253;66106;-56
2023/10/23 00:37:20;;;;;;;16.00;9.00;;;;;;;9.64;100.00;100234.84;109371;1253;71366;-54
2023/10/23 00:39:47;;;;;;;14.10;7.00;;;;;;;9.63;100.00;100230.98;109299;1253;60523;-57
2023/10/23 00:42:15;;;;;;;14.90;8.40;;;;;;;9.61;100.00;100229.70;109390;1253;60091;-55
2023/10/23 00:44:43;;;;;;;14.20;7.40;;;;;;;9.58;100.00;100222.73;109385;1252;74773;-56
2023/10/23 00:47:11;;;;;;;15.00;7.10;;;;;;;9.56;100.00;100226.81;109451;1251;68066;-54
2023/10/23 00:49:38;;;;;;;13.80;7.80;;;;;;;9.51;100.00;100220.19;109509;1251;71343;-54
2023/10/23 00:52:06;;;;;;;15.90;8.00;;;;;;;9.48;100.00;100228.91;109441;1251;60538;-57
2023/10/23 00:54:34;;;;;;;13.80;7.30;;;;;;;9.42;100.00;100213.08;109547;1251;59175;-55
2023/10/23 00:57:03;;;;;;;16.00;8.10;;;;;;;9.39;100.00;100206.29;109452;1251;75378;-54
2023/10/23 00:59:30;;;;;;;14.30;8.40;;;;;;;9.36;100.00;100211.19;109505;1251;67386;-58
2023/10/23 01:01:58;;;;;;;13.00;7.80;;;;;;;9.36;100.00;100205.48;109459;1251;72811;-55
2023/10/23 01:04:26;;;;;;;11.90;6.80;;;;;;;9.34;100.00;100203.59;109455;1251;61703;-60
2023/10/23 01:06:53;;;;;;;18.30;8.60;;;;;;;9.34;100.00;100209.23;109324;1251;59036;-61
2023/10/23 01:09:21;;;;;;;12.00;8.40;;;;;;;9.33;100.00;100215.19;109517;1251;73416;-56
2023/10/23 01:11:50;;;;;;;15.80;7.40;;;;;;;9.31;100.00;100202.19;109461;1251;65707;-61
2023/10/23 01:14:17;;;;;;;17.80;8.40;;;;;;;9.29;100.00;100209.60;109501;1251;71373;-56
2023/10/23 01:16:45;;;;;;;16.50;7.70;;;;;;;9.28;100.00;100210.41;109443;1251;61731;-55
2023/10/23 01:19:13;;;;;;;15.50;8.00;;;;;;;9.27;100.00;100209.48;109443;1254;60658;-57
2023/10/23 01:21:40;;;;;;;18.00;7.90;;;;;;;9.28;100.00;100204.20;109366;1253;73436;-61
2023/10/23 01:24:08;;;;;;;15.90;7.80;;;;;;;9.28;100.00;100207.63;109267;1253;67144;-57
2023/10/23 01:26:37;;;;;;;12.60;7.50;;;;;;;9.28;100.00;100203.80;109218;1253;72757;-63
2023/10/23 01:29:04;;;;;;;16.50;10.10;;;;;;;9.28;100.00;100207.78;109289;1253;61714;-59
2023/10/23 01:31:32;;;;;;;15.10;8.70;;;;;;;9.29;100.00;100203.80;109342;1253;60099;-60
2023/10/23 01:34:00;;;;;;;12.90;7.70;;;;;;;9.29;100.00;100205.80;109334;1253;74817;-60
2023/10/23 01:36:27;;;;;;;17.90;9.40;;;;;;;9.29;100.00;100207.04;109316;1253;66084;-57
2023/10/23 01:38:55;;;;;;;15.50;8.90;;;;;;;9.29;100.00;100213.80;109353;1253;71356;-60
2023/10/23 01:41:23;;;;;;;13.60;8.70;;;;;;;9.31;100.00;100209.58;109370;1253;60442;-58
2023/10/23 01:43:51;;;;;;;15.00;8.60;;;;;;;9.34;100.00;100210.52;109215;1253;60120;-57
2023/10/23 01:46:19;;;;;;;16.70;8.00;;;;;;;9.35;100.00;100215.81;109263;1253;74641;-58
2023/10/23 01:48:47;;;;;;;15.10;7.90;;;;;;;9.36;100.00;100214.48;109359;1253;66942;-63
2023/10/23 01:51:15;;;;;;;16.20;8.50;;;;;;;9.40;100.00;100218.33;109182;1253;72805;-60
2023/10/23 01:53:42;;;;;;;16.70;7.70;;;;;;;9.47;100.00;100212.16;109351;1253;61749;-60
2023/10/23 01:56:10;;;;;;;13.40;7.90;;;;;;;9.54;100.00;100204.34;109452;1253;60114;-59
2023/10/23 01:58:37;;;;;;;17.50;8.10;;;;;;;9.56;100.00;100200.61;109234;1253;75080;-58
2023/10/23 02:01:05;;;;;;;14.50;8.50;;;;;;;9.56;100.00;100197.81;109221;1253;68249;-61
2023/10/23 02:03:33;;;;;;;15.50;8.80;;;;;;;9.56;100.00;100197.48;109366;1253;72749;-59
2023/10/23 02:06:01;;;;;;;17.90;9.00;;;;;;;9.56;100.00;100194.56;109427;1251;60520;-57
2023/10/23 02:08:28;;;;;;;17.60;9.00;;;;;;;9.58;100.00;100190.98;109496;1251;59536;-55
2023/10/23 02:10:56;;;;;;;11.60;7.50;;;;;;;9.59;100.00;100190.49;109465;1251;74751;-59
2023/10/23 02:13:23;;;;;;;15.00;8.50;;;;;;;9.61;100.00;100183.41;109396;1253;66596;-57
2023/10/23 02:15:51;;;;;;;13.00;8.10;;;;;;;9.62;100.00;100171.72;109290;1253;71822;-57
2023/10/23 02:18:19;;;;;;;13.10;7.90;;;;;;;9.68;100.00;100160.46;109202;1252;62016;-55
2023/10/23 02:20:46;;;;;;;16.40;8.40;;;;;;;9.73;100.00;100156.05;109309;1253;59161;-55
2023/10/23 02:23:14;;;;;;;13.60;8.60;;;;;;;9.77;100.00;100163.29;109175;1253;74701;-54
2023/10/23 02:25:46;;;;;;;17.90;8.30;;;;;;;9.81;100.00;100170.92;109235;1252;66917;-55
2023/10/23 02:28:14;;;;;;;17.10;8.70;;;;;;;9.83;100.00;100163.58;109284;1254;71325;-55
2023/10/23 02:30:41;;;;;;;12.80;8.20;;;;;;;9.82;100.00;100151.84;109105;1253;60133;-54
2023/10/23 02:33:09;;;;;;;15.90;8.80;;;;;;;9.80;100.00;100144.48;109367;1253;60119;-55
2023/10/23 02:35:37;;;;;;;17.20;9.10;;;;;;;9.78;100.00;100128.23;109279;1253;73498;-55
2023/10/23 02:38:04;;;;;;;15.00;8.80;;;;;;;9.77;100.00;100113.27;109322;1253;65909;-54
2023/10/23 02:40:32;;;;;;;14.90;8.90;;;;;;;9.75;100.00;100108.45;109294;1254;72696;-55
2023/10/23 02:42:59;;;;;;;14.40;8.50;;;;;;;9.74;100.00;100104.05;109295;1253;61751;-57
2023/10/23 02:45:27;;;;;;;13.40;8.20;;;;;;;9.75;100.00;100099.97;109244;1253;59176;-55
2023/10/23 02:47:54;;;;;;;14.00;7.90;;;;;;;9.76;100.00;100094.84;109312;1252;73872;-54
2023/10/23 02:50:22;;;;;;;12.60;8.20;;;;;;;9.80;100.00;100096.46;109472;1251;66462;-54
2023/10/23 02:52:50;;;;;;;13.10;8.90;;;;;;;9.83;100.00;100099.18;109458;1251;72828;-56
2023/10/23 02:55:17;;;;;;;16.80;9.20;;;;;;;9.88;100.00;100089.52;109339;1253;60422;-54
2023/10/23 02:57:45;;;;;;;13.10;8.20;;;;;;;9.94;100.00;100088.95;109426;1253;60006;-54
2023/10/23 03:00:13;;;;;;;17.10;8.50;;;;;;;10.01;100.00;100111.61;109298;1253;73491;-55
2023/10/23 03:02:43;;;;;;;14.40;8.70;;;;;;;10.06;100.00;100125.98;109330;1253;65720;-55
2023/10/23 03:05:11;;;;;;;12.50;8.60;;;;;;;10.12;100.00;100123.69;109135;1253;72833;-54
2023/10/23 03:07:39;;;;;;;14.30;8.30;;;;;;;10.19;100.00;100119.55;109436;1251;60532;-55
2023/10/23 03:10:08;;;;;;;17.30;8.90;;;;;;;10.25;100.00;100118.02;109418;1253;59382;-55
2023/10/23 03:12:36;;;;;;;14.80;8.60;;;;;;;10.29;100.00;100111.00;109215;1253;75267;-55
2023/10/23 03:15:04;;;;;;;12.80;8.10;;;;;;;10.34;100.00;100102.38;109422;1253;67010;-54
2023/10/23 03:17:31;;;;;;;13.70;8.70;;;;;;;10.38;100.00;100097.81;109361;1253;72767;-54
2023/10/23 03:19:59;;;;;;;11.90;8.00;;;;;;;10.44;100.00;100104.02;109344;1252;61778;-54
2023/10/23 03:22:26;;;;;;;12.90;7.90;;;;;;;10.49;100.00;100101.86;109381;1253;60322;-56
2023/10/23 03:24:54;;;;;;;13.00;8.60;;;;;;;10.55;100.00;100098.25;109403;1253;73447;-55
2023/10/23 03:27:21;;;;;;;13.40;8.60;;;;;;;10.59;100.00;100092.04;109379;1252;66972;-54
2023/10/23 03:29:49;;;;;;;13.20;7.70;;;;;;;10.62;100.00;100088.38;109296;1252;71400;-54
2023/10/23 03:32:17;;;;;;;14.30;8.60;;;;;;;10.64;100.00;100087.52;109413;1252;60092;-54
2023/10/23 03:34:44;;;;;;;16.00;9.60;;;;;;;10.66;100.00;100091.15;109423;1253;60012;-54
2023/10/23 03:37:12;;;;;;;15.20;8.20;;;;;;;10.67;100.00;100082.84;109440;1252;74754;-54
2023/10/23 03:39:40;;;;;;;15.40;8.60;;;;;;;10.68;100.00;100081.29;109227;1253;66954;-54
2023/10/23 03:42:10;;;;;;;14.20;8.90;;;;;;;10.69;100.00;100075.81;109250;1253;72753;-56
2023/10/23 03:44:38;;;;;;;18.90;9.00;;;;;;;10.70;100.00;100079.50;109256;1253;60413;-54
2023/10/23 03:47:06;;;;;;;16.50;8.50;;;;;;;10.71;100.00;100076.27;109348;1253;58950;-55
2023/10/23 03:49:33;;;;;;;13.60;8.10;;;;;;;10.74;100.00;100062.73;109311;1252;73370;-55
2023/10/23 03:52:01;;;;;;;16.80;10.40;;;;;;;10.77;100.00;100052.45;109309;1252;65977;-56
2023/10/23 03:54:29;;;;;;;14.00;9.60;;;;;;;10.80;100.00;100061.45;109249;1254;73303;-54
2023/10/23 03:56:56;;;;;;;17.70;12.20;;;;;;;10.83;100.00;100074.95;109182;1253;61736;-55
2023/10/23 03:59:24;;;;;;;21.60;15.00;;;;;;;10.87;100.00;100070.45;109293;1253;60129;-55
2023/10/23 04:01:52;;;;;;;18.10;12.50;;;;;;;10.89;100.00;100063.48;109223;1253;74763;-54
2023/10/23 04:04:19;;;;;;;14.40;9.60;;;;;;;10.90;100.00;100064.14;109218;1253;66977;-57
2023/10/23 04:06:47;;;;;;;16.90;10.50;;;;;;;10.91;100.00;100070.77;109332;1251;72150;-54
2023/10/23 04:09:15;;;;;;;19.80;11.50;;;;;;;10.91;100.00;100074.63;109344;1252;59542;-55
2023/10/23 04:11:42;;;;;;;16.20;10.20;;;;;;;10.90;100.00;100081.70;109370;1252;59079;-54
2023/10/23 04:14:10;;;;;;;16.00;9.60;;;;;;;10.90;100.00;100088.31;109310;1252;74648;-54
2023/10/23 04:16:39;;;;;;;15.20;10.10;;;;;;;10.89;100.00;100081.30;109251;1253;65741;-55
2023/10/23 04:19:06;;;;;;;17.10;10.10;;;;;;;10.89;100.00;100083.27;109183;1253;71587;-55
2023/10/23 04:21:38;;;;;;;14.20;9.20;;;;;;;10.91;100.00;100080.91;109185;1254;60490;-54
2023/10/23 04:24:09;;;;;;;17.40;9.60;;;;;;;10.92;100.00;100074.06;109337;1252;59043;-57
2023/10/23 04:26:37;;;;;;;13.40;8.90;;;;;;;10.92;100.00;100068.81;109309;1253;74942;-55
2023/10/23 04:29:05;;;;;;;11.70;8.30;;;;;;;10.90;100.00;100063.32;109236;1253;66982;-55
2023/10/23 04:31:32;;;;;;;20.60;12.00;;;;;;;10.89;100.00;100063.29;109306;1253;72683;-55
2023/10/23 04:34:00;;;;;;;17.00;12.00;;;;;;;10.89;100.00;100054.38;109281;1253;60423;-54
2023/10/23 04:36:27;;;;;;;14.10;9.00;;;;;;;10.90;100.00;100042.80;109278;1253;59363;-54
2023/10/23 04:38:55;;;;;;;13.70;8.30;;;;;;;10.93;100.00;100043.05;109347;1253;74721;-56
2023/10/23 04:41:22;;;;;;;12.90;8.90;;;;;;;10.99;100.00;100054.60;109452;1252;66997;-54
2023/10/23 04:43:50;;;;;;;17.20;12.50;;;;;;;11.04;100.00;100062.83;109453;1252;72514;-54
2023/10/23 04:46:18;;;;;;;17.00;11.30;;;;;;;11.09;100.00;100059.77;109275;1252;60078;-55
2023/10/23 04:48:45;;;;;;;15.00;10.00;;;;;;;11.15;100.00;100054.80;109301;1252;60103;-55
2023/10/23 04:51:13;;;;;;;14.20;9.90;;;;;;;11.21;100.00;100057.56;109305;1253;74720;-54
2023/10/23 04:53:40;;;;;;;18.60;12.20;;;;;;;11.27;100.00;100061.89;109459;1252;66285;-55
2023/10/23 04:56:08;;;;;;;18.30;10.40;;;;;;;11.32;100.00;100052.52;109386;1253;71348;-59
2023/10/23 04:58:38;;;;;;;14.90;8.80;;;;;;;11.38;100.00;100031.64;109422;1253;61739;-55
2023/10/23 05:01:17;;;;;;;14.40;10.00;;;;;;;11.42;100.00;100036.59;109451;1252;60264;-55
2023/10/23 05:03:45;;;;;;;18.50;12.20;;;;;;;11.45;100.00;100045.41;109158;1252;74709;-57
2023/10/23 05:06:16;;;;;;;27.20;16.00;;;;;;;11.46;100.00;100050.63;109441;1252;65730;-57
2023/10/23 05:08:43;;;;;;;16.60;10.50;;;;;;;11.45;100.00;100038.34;109374;1253;71505;-55
2023/10/23 05:11:12;;;;;;;16.40;10.10;;;;;;;11.45;100.00;100040.42;109313;1252;60765;-55
2023/10/23 05:13:40;;;;;;;15.30;9.10;;;;;;;11.47;100.00;100046.29;109288;1253;58885;-56
2023/10/23 05:16:07;;;;;;;16.50;10.70;;;;;;;11.49;100.00;100056.62;109406;1252;73445;-54
2023/10/23 05:18:35;;;;;;;16.90;9.90;;;;;;;11.52;100.00;100073.70;109331;1253;65498;-54
2023/10/23 05:21:10;;;;;;;18.70;10.90;;;;;;;11.55;100.00;100074.88;109376;1252;72750;-55
2023/10/23 05:23:38;;;;;;;16.50;10.00;;;;;;;11.61;100.00;100071.02;109309;1252;61733;-55
2023/10/23 05:26:07;;;;;;;15.00;9.30;;;;;;;11.70;100.00;100061.77;109223;1253;58886;-55
2023/10/23 05:28:35;;;;;;;17.40;10.70;;;;;;;11.81;100.00;100064.88;109328;1253;73439;-55
2023/10/23 05:31:02;;;;;;;16.10;10.00;;;;;;;11.94;100.00;100069.45;109344;1252;65655;-55
2023/10/23 05:33:30;;;;;;;16.80;9.60;;;;;;;12.12;100.00;100066.77;109458;1253;72700;-55
2023/10/23 05:36:04;;;;;;;14.00;9.80;;;;;;;12.49;100.00;100068.50;109354;1253;60432;-56
2023/10/23 05:38:32;;;;;;;15.20;9.50;;;;;;;12.99;100.00;100068.63;109308;1252;59077;-55
2023/10/23 05:40:59;;;;;;;14.80;10.20;;;;;;;13.37;100.00;100053.92;109303;1252;74740;-55
2023/10/23 05:43:27;;;;;;;15.70;10.00;;;;;;;13.54;100.00;100059.06;109304;1252;67431;-56
2023/10/23 05:45:55;;;;;;;14.90;9.50;;;;;;;13.58;100.00;100060.55;109349;1253;72657;-56
2023/10/23 05:48:23;;;;;;;15.50;10.90;;;;;;;13.61;100.00;100053.05;109300;1254;61761;-56
2023/10/23 05:51:02;;;;;;;13.90;9.30;;;;;;;13.70;100.00;100047.64;109392;1252;58843;-55
2023/10/23 05:53:29;;;;;;;13.10;9.30;;;;;;;14.03;100.00;100046.63;109319;1253;74763;-56
2023/10/23 05:56:03;;;;;;;14.30;9.60;;;;;;;14.37;100.00;100046.65;109430;1253;65712;-56
2023/10/23 05:58:32;;;;;;;15.40;11.20;;;;;;;14.80;100.00;100049.41;109403;1253;71427;-56
2023/10/23 06:01:06;;;;;;;16.00;9.40;;;;;;;15.20;100.00;100036.13;109305;1254;60527;-56
2023/10/23 06:03:34;;;;;;;14.50;9.40;;;;;;;15.42;100.00;100030.44;109385;1253;58899;-57
2023/10/23 06:06:03;;;;;;;12.70;9.10;;;;;;;15.54;100.00;100015.90;109318;1252;74524;-56
2023/10/23 06:08:31;;;;;;;14.50;10.80;;;;;;;15.72;100.00;99998.77;109415;1253;67325;-56
2023/10/23 06:10:59;;;;;;;23.30;11.40;;;;;;;16.00;100.00;99989.60;109404;1254;72641;-56
2023/10/23 06:13:27;;;;;;;15.60;10.80;;;;;;;16.39;100.00;99977.32;109339;1252;59399;-58
2023/10/23 06:16:02;;;;;;;14.10;9.80;;;;;;;16.83;100.00;99973.59;109342;1254;60183;-56
2023/10/23 06:18:36;;;;;;;14.40;10.60;;;;;;;17.31;100.00;99950.33;109156;1252;75225;-57
2023/10/23 06:21:05;;;;;;;16.30;11.40;;;;;;;17.74;100.00;99945.95;109412;1256;66716;-58
2023/10/23 06:23:38;;;;;;;16.80;11.10;;;;;;;18.10;100.00;99935.16;109354;1252;71150;-57
2023/10/23 06:26:09;;;;;;;19.90;13.20;;;;;;;18.45;100.00;99913.67;109245;1254;60154;-56
2023/10/23 06:28:36;;;;;;;18.30;13.30;;;;;;;18.73;100.00;99908.52;109414;1254;60071;-57
2023/10/23 06:31:05;;;;;;;19.60;11.90;;;;;;;19.05;100.00;99889.84;109365;1253;74675;-57
2023/10/23 06:33:33;;;;;;;18.30;11.70;;;;;;;19.38;100.00;99877.50;109390;1252;66049;-56
2023/10/23 06:36:00;;;;;;;13.70;10.40;;;;;;;19.70;100.00;99875.41;109443;1252;72676;-56
2023/10/23 06:38:28;;;;;;;15.10;10.00;;;;;;;20.05;100.00;99871.34;109428;1254;58963;-56
2023/10/23 06:41:01;;;;;;;13.10;9.80;;;;;;;20.35;100.00;99877.88;109473;1251;60088;-56
2023/10/23 06:43:29;;;;;;;15.00;10.00;;;;;;;20.40;100.00;99875.83;109414;1252;74857;-56
2023/10/23 06:45:56;;;;;;;12.70;9.70;;;;;;;20.20;100.00;99875.77;109448;1254;65486;-56
2023/10/23 06:48:32;;;;;;;13.90;9.90;;;;;;;19.83;100.00;99876.31;109436;1252;71700;-55
2023/10/23 06:51:00;;;;;;;13.50;9.60;;;;;;;19.54;100.00;99869.98;109374;1252;60392;-56
2023/10/23 06:53:28;;;;;;;14.60;11.20;;;;;;;19.38;100.00;99860.00;109370;1253;60033;-55
2023/10/23 06:55:55;;;;;;;22.60;16.50;;;;;;;19.42;100.00;99856.27;109314;1252;73857;-56
2023/10/23 06:58:23;;;;;;;17.50;11.80;;;;;;;19.73;100.00;99848.20;109375;1253;65638;-56
2023/10/23 07:00:50;;;;;;;39.90;28.60;;;;;;;20.10;100.00;99853.27;109402;1252;72730;-56
2023/10/23 07:03:18;;;;;;;55.20;38.00;;;;;;;20.30;100.00;99852.02;109322;1253;60178;-56
2023/10/23 07:05:46;;;;;;;30.90;21.60;;;;;;;20.33;100.00;99842.29;109397;1254;58898;-56
2023/10/23 07:08:13;;;;;;;34.80;21.80;;;;;;;20.46;100.00;99827.79;109291;1253;73471;-56
2023/10/23 07:10:41;;;;;;;25.70;18.70;;;;;;;20.71;100.00;99830.25;109408;1253;66971;-56
2023/10/23 07:13:09;;;;;;;26.70;18.90;;;;;;;21.07;100.00;99828.73;109408;1253;72747;-57
2023/10/23 07:15:49;;;;;;;29.50;19.10;;;;;;;21.47;100.00;99830.65;109406;1254;59578;-56
2023/10/23 07:18:18;;;;;;;27.70;20.60;;;;;;;22.01;100.00;99822.54;109387;1256;59054;-56
2023/10/23 07:20:56;;;;;;;26.30;19.10;;;;;;;22.57;100.00;99817.48;109389;1256;73441;-56
2023/10/23 07:23:24;;;;;;;19.00;14.80;;;;;;;22.97;100.00;99810.17;109416;1254;67201;-56
2023/10/23 07:26:12;;;;;;;17.40;13.40;;;;;;;23.24;100.00;99802.38;109355;1252;72742;-56
2023/10/23 07:28:41;;;;;;;24.60;18.10;;;;;;;23.57;100.00;99798.45;109330;1253;60143;-57
2023/10/23 07:31:11;;;;;;;19.20;15.60;;;;;;;23.86;100.00;99795.56;109430;1254;59005;-56
2023/10/23 07:33:38;;;;;;;19.70;15.70;;;;;;;24.11;100.00;99803.55;109392;1255;73386;-56
2023/10/23 07:36:07;;;;;;;17.30;12.40;;;;;;;24.29;100.00;99797.77;109393;1253;65977;-56
2023/10/23 07:38:35;;;;;;;14.90;10.50;;;;;;;24.31;100.00;99799.48;109284;1253;71923;-57
2023/10/23 07:41:03;;;;;;;18.30;13.60;;;;;;;24.28;100.00;99800.27;109371;1253;59289;-56
2023/10/23 07:43:30;;;;;;;22.80;15.20;;;;;;;24.26;100.00;99804.44;109374;1253;58964;-56
2023/10/23 07:46:02;;;;;;;16.40;11.70;;;;;;;24.36;100.00;99802.42;109404;1254;73438;-56
2023/10/23 07:48:43;;;;;;;9.80;7.20;;;;;;;24.55;100.00;99797.95;109267;1253;65515;-58
2023/10/23 07:51:11;;;;;;;9.20;6.60;;;;;;;24.69;100.00;99802.07;109407;1254;71814;-56
2023/10/23 07:53:39;;;;;;;9.20;6.80;;;;;;;24.76;100.00;99794.98;109387;1252;60092;-56
2023/10/23 07:56:06;;;;;;;8.40;6.60;;;;;;;24.95;100.00;99787.98;109307;1252;59456;-56
2023/10/23 07:58:34;;;;;;;10.10;6.90;;;;;;;25.19;100.00;99791.11;109421;1253;74798;-56
2023/10/23 08:01:05;;;;;;;11.40;7.10;;;;;;;25.47;100.00;99785.54;109354;1254;66486;-56
2023/10/23 08:03:33;;;;;;;13.80;10.70;;;;;;;25.68;100.00;99779.55;109402;1253;71821;-56
2023/10/23 08:06:05;;;;;;;9.60;6.80;;;;;;;25.92;100.00;99781.73;109278;1257;59201;-56
2023/10/23 08:08:37;;;;;;;8.40;4.90;;;;;;;26.22;100.00;99774.59;109391;1252;59132;-57
2023/10/23 08:11:06;;;;;;;7.00;3.60;;;;;;;26.38;100.00;99778.05;109439;1253;74910;-57
2023/10/23 08:13:34;;;;;;;8.00;4.20;;;;;;;26.20;100.00;99776.55;109429;1254;65159;-56
2023/10/23 08:16:03;;;;;;;8.80;4.60;;;;;;;26.01;100.00;99772.58;109334;1254;72747;-57
2023/10/23 08:18:32;;;;;;;7.20;3.80;;;;;;;26.00;100.00;99768.36;109288;1254;60208;-58
2023/10/23 08:21:12;;;;;;;;;;;;;;;26.01;100.00;99762.58;109402;1252;61125;-57
2023/10/23 08:23:40;;;;;;;9.90;4.90;;;;;;;25.88;100.00;99761.91;109334;1254;74647;-56
2023/10/23 08:26:08;;;;;;;6.80;3.80;;;;;;;25.74;100.00;99773.95;109443;1253;66770;-56
2023/10/23 08:28:36;;;;;;;8.40;4.60;;;;;;;25.57;100.00;99772.55;109291;1253;71125;-56
2023/10/23 08:31:06;;;;;;;7.60;4.50;;;;;;;25.36;100.00;99768.31;109278;1254;60145;-56
2023/10/23 08:33:47;;;;;;;8.60;5.20;;;;;;;25.31;100.00;99766.61;109411;1253;60123;-58
2023/10/23 08:36:15;;;;;;;10.40;5.50;;;;;;;25.37;100.00;99767.07;109318;1254;75770;-56
2023/10/23 08:38:42;;;;;;;9.10;5.50;;;;;;;25.43;100.00;99765.43;109357;1252;66958;-56
2023/10/23 08:41:10;;;;;;;8.40;5.50;;;;;;;25.47;100.00;99763.02;109381;1252;72678;-57
2023/10/23 08:43:40;;;;;;;10.20;5.20;;;;;;;25.56;100.00;99769.10;109392;1254;60339;-56
2023/10/23 08:46:08;;;;;;;7.40;4.40;;;;;;;25.67;100.00;99763.76;109372;1254;59377;-56
2023/10/23 08:48:37;;;;;;;7.20;4.80;;;;;;;25.61;100.00;99759.23;109396;1253;74790;-56
2023/10/23 08:51:04;;;;;;;9.10;5.90;;;;;;;25.48;100.00;99753.91;109212;1254;67090;-56
2023/10/23 08:53:33;;;;;;;7.50;4.90;;;;;;;25.49;100.00;99748.94;109196;1252;71409;-56
2023/10/23 08:56:02;;;;;;;9.90;5.00;;;;;;;25.52;100.00;99742.66;109421;1252;59402;-56
2023/10/23 08:58:31;;;;;;;8.00;4.50;;;;;;;25.55;100.00;99736.61;109328;1252;59465;-56
2023/10/23 09:00:58;;;;;;;9.90;5.40;;;;;;;25.47;100.00;99739.58;109324;1253;73901;-59
2023/10/23 09:03:26;;;;;;;7.70;5.00;;;;;;;25.39;100.00;99748.85;109415;1253;67043;-57
2023/10/23 09:06:17;;;;;;;7.80;4.80;;;;;;;25.25;100.00;99749.45;109221;1254;74858;-56
2023/10/23 09:08:45;;;;;;;8.90;5.10;;;;;;;24.93;100.00;99751.92;109317;1252;58974;-56
2023/10/23 09:11:12;;;;;;;9.30;5.50;;;;;;;24.60;100.00;99754.48;109402;1253;60077;-57
2023/10/23 09:13:40;;;;;;;10.90;5.90;;;;;;;24.23;100.00;99762.94;109268;1253;76913;-57
2023/10/23 09:16:09;;;;;;;7.70;4.90;;;;;;;23.71;100.00;99768.89;109286;1251;65135;-57
2023/10/23 09:18:49;;;;;;;10.80;6.00;;;;;;;23.17;100.00;99770.20;109382;1252;72724;-58
2023/10/23 09:21:17;;;;;;;10.40;6.40;;;;;;;22.65;100.00;99769.27;109375;1253;58973;-57
2023/10/23 09:23:53;;;;;;;12.20;7.20;;;;;;;22.23;100.00;99776.04;109294;1254;61088;-56
2023/10/23 09:26:22;;;;;;;9.20;6.10;;;;;;;21.87;100.00;99775.12;109322;1253;76118;-56
2023/10/23 09:28:52;;;;;;;13.10;7.30;;;;;;;21.54;100.00;99778.41;109405;1251;68160;-58
2023/10/23 09:31:20;;;;;;;11.80;7.20;;;;;;;21.26;100.00;99781.10;109362;1253;73836;-57
2023/10/23 09:33:49;;;;;;;9.90;6.50;;;;;;;21.02;100.00;99786.16;109382;1254;59342;-57
2023/10/23 09:36:17;;;;;;;12.40;7.90;;;;;;;20.80;100.00;99785.29;109296;1254;59357;-56
2023/10/23 09:38:58;;;;;;;14.40;9.60;;;;;;;20.62;100.00;99782.75;109318;1254;73438;-56
2023/10/23 09:41:27;;;;;;;17.10;12.10;;;;;;;20.46;100.00;99783.80;109335;1253;67062;-56
2023/10/23 09:43:56;;;;;;;18.00;13.20;;;;;;;20.32;100.00;99785.21;109404;1253;72746;-56
2023/10/23 09:46:24;;;;;;;23.00;15.50;;;;;;;20.18;100.00;99784.41;109267;1253;62517;-56
2023/10/23 09:48:52;;;;;;;21.30;14.70;;;;;;;20.13;100.00;99787.45;109403;1252;59407;-56
2023/10/23 09:51:28;;;;;;;18.70;13.60;;;;;;;20.09;100.00;99785.05;109364;1253;74742;-56
2023/10/23 09:53:59;;;;;;;16.10;11.90;;;;;;;20.10;100.00;99784.42;109436;1252;67058;-56
2023/10/23 09:56:30;;;;;;;22.30;14.40;;;;;;;20.13;100.00;99784.23;109293;1252;74861;-57
2023/10/23 09:59:00;;;;;;;14.50;10.90;;;;;;;20.16;100.00;99779.21;109350;1252;61754;-57
2023/10/23 10:01:34;;;;;;;17.90;12.10;;;;;;;20.22;100.00;99776.33;109369;1253;58934;-56
2023/10/23 10:04:26;;;;;;;16.10;12.10;;;;;;;20.23;100.00;99777.54;109273;1253;75807;-57
2023/10/23 10:06:57;;;;;;;16.20;11.50;;;;;;;20.26;100.00;99776.94;109121;1253;69225;-56
2023/10/23 10:09:25;;;;;;;17.50;11.90;;;;;;;20.32;100.00;99777.43;109368;1252;73751;-56
2023/10/23 10:11:55;;;;;;;16.10;11.30;;;;;;;20.35;100.00;99774.11;109250;1253;58974;-57
2023/10/23 10:14:25;;;;;;;15.80;12.00;;;;;;;20.35;100.00;99770.36;109405;1253;60196;-57
2023/10/23 10:16:55;;;;;;;15.50;11.80;;;;;;;20.38;100.00;99769.40;109260;1252;76712;-56
2023/10/23 10:19:26;;;;;;;17.30;12.80;;;;;;;20.43;100.00;99769.48;109362;1252;67006;-57
2023/10/23 10:22:04;;;;;;;;;;;;;;;20.47;100.00;99771.49;109342;1252;72651;-56
2023/10/23 10:24:35;;;;;;;15.80;12.20;;;;;;;20.55;100.00;99779.98;109329;1252;62091;-56
2023/10/23 10:27:03;;;;;;;19.60;14.80;;;;;;;20.65;100.00;99779.69;109140;1254;59086;-58
2023/10/23 10:29:31;;;;;;;19.40;12.80;;;;;;;20.71;100.00;99778.96;109318;1253;76710;-57
2023/10/23 10:32:08;;;;;;;15.20;12.30;;;;;;;20.75;100.00;99770.23;109288;1253;68876;-57
2023/10/23 10:34:52;;;;;;;19.80;12.90;;;;;;;20.83;100.00;99766.76;109296;1251;71492;-57
2023/10/23 10:37:25;;;;;;;17.40;12.60;;;;;;;20.84;100.00;99767.75;109286;1253;61205;-57
2023/10/23 10:39:56;;;;;;;15.30;11.50;;;;;;;20.86;100.00;99770.24;109280;1253;59289;-57
2023/10/23 10:42:28;;;;;;;16.90;12.30;;;;;;;20.88;100.00;99772.42;109319;1253;73977;-59
2023/10/23 10:44:57;;;;;;;18.30;13.10;;;;;;;20.87;100.00;99770.14;109361;1252;67000;-57
2023/10/23 10:47:39;;;;;;;21.70;14.60;;;;;;;20.83;100.00;99765.32;109279;1253;71444;-57
2023/10/23 10:50:07;;;;;;;22.70;16.50;;;;;;;20.82;100.00;99768.23;109263;1253;59111;-58
2023/10/23 10:52:43;;;;;;;24.40;14.50;;;;;;;20.86;100.00;99768.98;109334;1252;58997;-57
2023/10/23 10:55:12;;;;;;;16.40;13.20;;;;;;;20.87;100.00;99774.60;109349;1253;76752;-57
2023/10/23 10:57:40;;;;;;;19.20;13.20;;;;;;;20.88;100.00;99772.86;109384;1252;69359;-57
2023/10/23 11:00:11;;;;;;;25.70;18.80;;;;;;;20.94;100.00;99773.98;109190;1252;73099;-57
2023/10/23 11:02:39;;;;;;;22.90;15.20;;;;;;;21.07;100.00;99776.89;109294;1253;59517;-57
2023/10/23 11:05:11;;;;;;;21.70;15.60;;;;;;;21.18;100.00;99772.83;109397;1252;62280;-57
2023/10/23 11:07:38;;;;;;;22.00;16.10;;;;;;;21.31;100.00;99770.83;109235;1252;76657;-56
2023/10/23 11:10:07;;;;;;;18.80;15.50;;;;;;;21.57;100.00;99759.69;109263;1253;69230;-57
2023/10/23 11:12:34;;;;;;;17.40;14.10;;;;;;;21.81;100.00;99759.73;109275;1253;71429;-57